Flight Track Log - Related Links

Times and Time Zones

All times are in EST time to prevent confusion due to time zone crossing. See the N830QS flight status page for this flight to view local times or setup timezone preferences in your user account.

Time Position Orientation Groundspeed Altitude Reporting Facility
EST Latitude Longitude Course Direction KTS MPH feet Rate Location/Type
Thu 06:06:00 PM 35.0639 -85.1900 321° Northwest 187 215 2,500  Level Memphis Center
Thu 06:07:02 PM 35.1272 -85.2283 334° Northwest 246 283 7,600 3,629 Climbing Memphis Center
Thu 06:08:04 PM 35.1719 -85.2931 310° West 248 285 10,000 3,120 Climbing Memphis Center
Thu 06:09:07 PM 35.2217 -85.3628 311° West 264 304 14,100 3,888 Climbing Memphis Center
Thu 06:10:09 PM 35.2703 -85.4317 311° West 267 307 18,100 3,242 Climbing Memphis Center
Thu 06:11:00 PM 35.2527 -85.7962 321° Northwest  Level Estimated
Thu 06:11:11 PM 35.3183 -85.5003 311° West 264 304 20,800  Level Memphis Center
Thu 06:11:23 PM 35.3289 -85.5144 312° West 268 308 21,300 2,432 Climbing Memphis Center
Thu 06:12:25 PM 35.3806 -85.5878 311° West 278 320 23,800 2,371 Climbing Memphis Center
Thu 06:13:27 PM 35.4450 -85.6792 311° West 291 335 26,200 2,032 Climbing Memphis Center
Thu 06:14:29 PM 35.4978 -85.7581 309° West 297 342 28,000 871 Climbing Memphis Center
Thu 06:15:31 PM 35.5542 -85.8408 310° West 308 354 28,000 677 Level Memphis Center
Thu 06:16:33 PM 35.6117 -85.9269 309° West 321 369 29,400 1,694 Climbing Memphis Center
Thu 06:17:35 PM 35.6628 -86.0044 309° West 306 352 31,500 1,839 Climbing Memphis Center
Thu 06:18:37 PM 35.7128 -86.0794 309° West 288 331 33,200 1,200 Climbing Memphis Center
Thu 06:19:40 PM 35.7725 -86.1664 310° West 282 325 34,000 384 Climbing Memphis Center
Thu 06:20:42 PM 35.8242 -86.2456 309° West 288 331 34,000 581 Level Memphis Center
Thu 06:21:44 PM 35.8758 -86.3233 309° West 291 335 35,200 1,452 Climbing Memphis Center
Thu 06:22:46 PM 35.9211 -86.3956 308° West 272 313 37,000 1,355 Climbing Memphis Center
Thu 06:23:48 PM 35.9686 -86.4656 310° West 264 304 38,000 484 Climbing Memphis Center
Thu 06:24:50 PM 36.0214 -86.5389 312° West 277 319 38,000  Level Memphis Center
Thu 06:25:52 PM 36.0864 -86.6158 316° Northwest 309 356 38,000  Level Memphis Center
Thu 06:26:54 PM 36.1517 -86.7167 309° West 318 366 38,000  Level Memphis Center
Thu 06:27:56 PM 36.1942 -86.8106 299° West 309 356 38,000  Level Memphis Center
Thu 06:28:58 PM 36.2378 -86.9031 300° West 306 352 38,000  Level Memphis Center
Thu 06:30:00 PM 36.2800 -86.9972 299° West 304 350 38,000  Level Memphis Center
Thu 06:31:02 PM 36.3228 -87.0908 300° West 305 351 38,000  Level Memphis Center
Thu 06:32:04 PM 36.3650 -87.1858 299° West 309 356 38,000  Level Memphis Center
Thu 06:33:06 PM 36.4083 -87.2822 299° West 313 360 38,000  Level Memphis Center
Thu 06:34:08 PM 36.4511 -87.3786 299° West 314 361 38,000  Level Memphis Center
Thu 06:35:10 PM 36.4942 -87.4753 299° West 316 364 38,000  Level Memphis Center
Thu 06:36:12 PM 36.5372 -87.5714 299° West 315 362 38,000  Level Memphis Center
Thu 06:37:15 PM 36.5806 -87.6689 299° West 317 365 38,000  Level Memphis Center
Thu 06:38:17 PM 36.6303 -87.7825 299° West 317 365 38,000  Level Memphis Center
Thu 06:39:19 PM 36.6728 -87.8803 298° West 317 365 38,000  Level Memphis Center
Thu 06:40:21 PM 36.7175 -87.9772 300° West 319 367 38,000  Level Memphis Center
Thu 06:41:23 PM 36.7583 -88.0747 298° West 316 364 38,000  Level Memphis Center
Thu 06:42:25 PM 36.7989 -88.1664 299° West 320 368 38,000  Level Memphis Center
Thu 06:43:27 PM 36.8500 -88.2828 299° West 320 368 38,000  Level Memphis Center
Thu 06:44:29 PM 36.8925 -88.3808 298° West 321 369 38,000  Level Memphis Center
Thu 06:45:31 PM 36.9344 -88.4783 298° West 320 368 38,000  Level Memphis Center
Thu 06:46:33 PM 36.9767 -88.5764 298° West 320 368 38,000  Level Memphis Center
Thu 06:47:35 PM 37.0192 -88.6739 299° West 320 368 38,000  Level Memphis Center
Thu 06:48:37 PM 37.0608 -88.7717 298° West 320 368 38,000  Level Memphis Center
Thu 06:49:39 PM 37.1111 -88.8883 298° West 320 368 38,000  Level Memphis Center
Thu 06:50:41 PM 37.1519 -88.9867 298° West 320 368 38,000  Level Memphis Center
Thu 06:51:43 PM 37.1950 -89.0853 299° West 321 369 38,000  Level Memphis Center
Thu 06:52:45 PM 37.2369 -89.1836 298° West 321 369 38,000  Level Memphis Center
Thu 06:53:47 PM 37.2792 -89.2847 298° West 325 374 38,000  Level Memphis Center
Thu 06:54:49 PM 37.3294 -89.4044 298° West 324 373 38,000  Level Memphis Center
Thu 06:55:51 PM 37.3714 -89.5053 298° West 325 374 38,000  Level Memphis Center
Thu 06:56:54 PM 37.4136 -89.6047 298° West 325 374 38,000  Level Memphis Center
Thu 06:57:56 PM 37.4556 -89.7056 298° West 325 374 38,000  Level Memphis Center
Thu 06:58:58 PM 37.4900 -89.8111 292° West 331 381 38,000  Level Memphis Center
Thu 07:00:03 PM 37.5161 -89.9425 284° West 326 375 38,000  Level Memphis Center
Thu 07:01:05 PM 37.5367 -90.0539 283° West 326 375 38,000  Level Memphis Center
Thu 07:02:07 PM 37.5572 -90.1642 283° West 325 374 38,000  Level Memphis Center
Thu 07:03:09 PM 37.5781 -90.2747 283° West 324 373 38,000  Level Memphis Center
Thu 07:04:11 PM 37.5992 -90.3853 284° West 325 374 38,000  Level Memphis Center
Thu 07:05:13 PM 37.6203 -90.5042 283° West 325 374 38,000  Level Memphis Center
Thu 07:06:15 PM 37.6408 -90.6150 283° West 325 374 38,000  Level Memphis Center
Thu 07:07:31 PM 37.6656 -90.7567 282° West 323 372 38,000  Level Kansas City Center
Thu 07:08:33 PM 37.6861 -90.8689 283° West 326 375 38,000  Level Kansas City Center
Thu 07:09:33 PM 37.7047 -90.9797 282° West 324 373 38,000  Level Kansas City Center
Thu 07:10:37 PM 37.7275 -91.1078 283° West 327 376 38,000  Level Kansas City Center
Thu 07:11:39 PM 37.7475 -91.2208 283° West 328 377 38,000  Level Kansas City Center
Thu 07:12:41 PM 37.7667 -91.3347 282° West 330 380 38,000  Level Kansas City Center
Thu 07:13:42 PM 37.7861 -91.4489 282° West 331 381 38,000  Level Kansas City Center
Thu 07:14:44 PM 37.8067 -91.5631 283° West 332 382 38,000  Level Kansas City Center
Thu 07:15:46 PM 37.8261 -91.6781 282° West 332 382 38,000  Level Kansas City Center
Thu 07:16:47 PM 37.8494 -91.8156 282° West 332 382 38,000  Level Kansas City Center
Thu 07:17:51 PM 37.8697 -91.9297 283° West 331 381 38,000  Level Kansas City Center
Thu 07:18:52 PM 37.8889 -92.0436 282° West 330 380 38,000  Level Kansas City Center
Thu 07:19:53 PM 37.9092 -92.1614 282° West 332 382 38,000  Level Kansas City Center
Thu 07:20:56 PM 37.9283 -92.2775 282° West 334 384 38,000  Level Kansas City Center
Thu 07:21:57 PM 37.9475 -92.3919 282° West 334 384 38,000  Level Kansas City Center
Thu 07:23:00 PM 37.9656 -92.5056 281° West 333 383 38,000  Level Kansas City Center
Thu 07:24:02 PM 37.9847 -92.6219 282° West 337 388 38,000  Level Kansas City Center
Thu 07:25:03 PM 38.0050 -92.7492 281° West 336 387 38,000  Level Kansas City Center
Thu 07:26:06 PM 38.0239 -92.8675 281° West 339 390 38,000  Level Kansas City Center
Thu 07:27:06 PM 38.0425 -92.9842 281° West 337 388 38,000  Level Kansas City Center
Thu 07:28:11 PM 38.0656 -93.1253 282° West 339 390 38,000  Level Kansas City Center
Thu 07:29:11 PM 38.0847 -93.2439 282° West 339 390 38,000  Level Kansas City Center
Thu 07:30:15 PM 38.1019 -93.3639 280° West 343 395 38,000  Level Kansas City Center
Thu 07:31:16 PM 38.1217 -93.4833 282° West 344 396 38,000  Level Kansas City Center
Thu 07:32:17 PM 38.1400 -93.6028 281° West 344 396 38,000  Level Kansas City Center
Thu 07:33:21 PM 38.1578 -93.7231 281° West 345 397 38,000  Level Kansas City Center
Thu 07:34:22 PM 38.1753 -93.8422 281° West 342 394 38,000  Level Kansas City Center
Thu 07:35:24 PM 38.1956 -93.9597 282° West 341 392 38,000  Level Kansas City Center
Thu 07:36:27 PM 38.2147 -94.0933 280° West 342 394 38,000  Level Kansas City Center
Thu 07:37:29 PM 38.2344 -94.2281 281° West 344 396 38,000  Level Kansas City Center
Thu 07:38:29 PM 38.2508 -94.3439 280° West 345 397 38,000  Level Kansas City Center
Thu 07:39:32 PM 38.2681 -94.4611 281° West 348 400 38,000  Level Kansas City Center
Thu 07:40:33 PM 38.2900 -94.5953 282° West 349 402 38,000  Level Kansas City Center
Thu 07:41:35 PM 38.3122 -94.7133 284° West 354 407 38,000  Level Kansas City Center
Thu 07:42:36 PM 38.3353 -94.8489 282° West 352 405 38,000  Level Kansas City Center
Thu 07:43:40 PM 38.3558 -94.9650 283° West 351 404 38,000  Level Kansas City Center
Thu 07:44:40 PM 38.3794 -95.1033 282° West 355 409 38,000 -145 Level Kansas City Center
Thu 07:45:44 PM 38.3997 -95.2206 282° West 353 406 37,700 -619 Descending Kansas City Center
Thu 07:46:46 PM 38.4206 -95.3372 283° West 352 405 36,700 -1,306 Descending Kansas City Center
Thu 07:47:48 PM 38.4431 -95.4708 282° West 348 400 35,000 -1,805 Descending Kansas City Center
Thu 07:48:49 PM 38.4611 -95.5831 282° West 338 389 33,000 -2,066 Descending Kansas City Center
Thu 07:49:50 PM 38.4842 -95.7183 282° West 349 402 30,800 -1,984 Descending Kansas City Center
Thu 07:50:53 PM 38.5033 -95.8339 282° West 347 399 28,900 -2,064 Descending Kansas City Center
Thu 07:51:55 PM 38.5272 -95.9792 282° West 370 426 26,500 -2,361 Descending Kansas City Center
Thu 07:52:55 PM 38.5478 -96.1033 282° West 373 429 24,100 -2,361 Descending Kansas City Center
Thu 07:53:57 PM 38.5672 -96.2244 282° West 364 419 21,700 -2,516 Descending Kansas City Center
Thu 07:54:59 PM 38.5886 -96.3603 281° West 349 402 18,900 -2,081 Descending Kansas City Center
Thu 07:56:01 PM 38.6067 -96.4733 282° West 341 392 17,400 -1,790 Descending Kansas City Center
Thu 07:57:03 PM 38.6278 -96.6036 282° West 335 386 15,200 -2,016 Descending Kansas City Center
Thu 07:58:06 PM 38.6464 -96.7219 281° West 333 383 13,200 -1,694 Descending Kansas City Center
Thu 07:59:07 PM 38.6639 -96.8383 281° West 320 368 11,700 -1,200 Descending Kansas City Center
Thu 08:00:11 PM 38.6808 -96.9483 281° West 304 350 10,700 -1,210 Descending Kansas City Center
Thu 08:01:11 PM 38.6964 -97.0450 282° West 270 311 9,200 -1,438 Descending Kansas City Center
Thu 08:02:12 PM 38.7100 -97.1325 281° West 262 302 7,800 -1,452 Descending Kansas City Center
Thu 08:03:15 PM 38.7242 -97.2242 281° West 251 289 6,200 -1,548 Descending Kansas City Center
Thu 08:04:16 PM 38.7236 -97.3164 270° West 251 289 4,600 -1,268 Descending Kansas City Center
Thu 08:05:18 PM 38.7208 -97.4058 268° West 243 280 3,600 -774 Descending Kansas City Center
Thu 08:06:20 PM 38.7211 -97.4903 270° West 229 264 3,000 -295 Descending Kansas City Center
Thu 08:07:20 PM 38.7231 -97.5525 272° West 190 219 3,000 -48 Level Kansas City Center
Thu 08:08:24 PM 38.7278 -97.6111 276° West 164 189 2,900 -576 Descending Kansas City Center
Thu 08:09:25 PM 38.7497 -97.6467 308° West 128 147 1,800 -541 Descending Kansas City Center
Thu 08:10:26 PM 38.7725 -97.6664 326° Northwest 126 145 1,800  Level Kansas City Center

Login

Don't have an account? Register now (free) for customized features, flight alerts, and more!